sensor_id;sensor_type;location;lat;lon;timestamp;pressure;altitude;pressure_sealevel;temperature;humidity
15487;BME280;7845;53.698;10.078;2023-01-29T00:00:03;102188.56;;;4.66;100.00
15487;BME280;7845;53.698;10.078;2023-01-29T00:02:34;102187.88;;;4.70;100.00
15487;BME280;7845;53.698;10.078;2023-01-29T00:04:59;102179.13;;;4.67;100.00
15487;BME280;7845;53.698;10.078;2023-01-29T00:07:24;102179.97;;;4.66;100.00
15487;BME280;7845;53.698;10.078;2023-01-29T00:09:50;102167.97;;;4.68;100.00
15487;BME280;7845;53.698;10.078;2023-01-29T00:12:15;102167.84;;;4.65;100.00
15487;BME280;7845;53.698;10.078;2023-01-29T00:14:42;102171.47;;;4.70;100.00
15487;BME280;7845;53.698;10.078;2023-01-29T00:17:07;102167.28;;;4.72;100.00
15487;BME280;7845;53.698;10.078;2023-01-29T00:19:33;102162.34;;;4.78;100.00
15487;BME280;7845;53.698;10.078;2023-01-29T00:21:59;102147.75;;;4.80;100.00
15487;BME280;7845;53.698;10.078;2023-01-29T00:24:25;102144.31;;;4.81;100.00
15487;BME280;7845;53.698;10.078;2023-01-29T00:26:51;102132.22;;;4.80;100.00
15487;BME280;7845;53.698;10.078;2023-01-29T00:29:16;102132.91;;;4.76;100.00
15487;BME280;7845;53.698;10.078;2023-01-29T00:31:43;102135.59;;;4.77;100.00
15487;BME280;7845;53.698;10.078;2023-01-29T00:34:09;102133.88;;;4.78;100.00
15487;BME280;7845;53.698;10.078;2023-01-29T00:36:35;102127.53;;;4.70;100.00
15487;BME280;7845;53.698;10.078;2023-01-29T00:39:00;102129.56;;;4.78;100.00
15487;BME280;7845;53.698;10.078;2023-01-29T00:41:34;102127.06;;;4.80;100.00
15487;BME280;7845;53.698;10.078;2023-01-29T00:44:18;102135.47;;;4.74;100.00
15487;BME280;7845;53.698;10.078;2023-01-29T00:47:03;102128.72;;;4.78;100.00
15487;BME280;7845;53.698;10.078;2023-01-29T00:49:28;102126.81;;;4.74;100.00
15487;BME280;7845;53.698;10.078;2023-01-29T00:52:02;102134.63;;;4.75;100.00
15487;BME280;7845;53.698;10.078;2023-01-29T00:54:46;102137.69;;;4.65;100.00
15487;BME280;7845;53.698;10.078;2023-01-29T00:57:11;102138.72;;;4.69;100.00
15487;BME280;7845;53.698;10.078;2023-01-29T00:59:36;102141.28;;;4.69;100.00
15487;BME280;7845;53.698;10.078;2023-01-29T01:02:02;102141.44;;;4.73;100.00
15487;BME280;7845;53.698;10.078;2023-01-29T01:04:46;102138.09;;;4.76;100.00
15487;BME280;7845;53.698;10.078;2023-01-29T01:07:12;102139.91;;;4.78;100.00
15487;BME280;7845;53.698;10.078;2023-01-29T01:09:37;102133.78;;;4.75;100.00
15487;BME280;7845;53.698;10.078;2023-01-29T01:12:21;102137.16;;;4.74;100.00
15487;BME280;7845;53.698;10.078;2023-01-29T01:14:47;102131.22;;;4.76;100.00
15487;BME280;7845;53.698;10.078;2023-01-29T01:17:13;102130.53;;;4.80;100.00
15487;BME280;7845;53.698;10.078;2023-01-29T01:19:39;102128.88;;;4.82;100.00
15487;BME280;7845;53.698;10.078;2023-01-29T01:22:05;102123.69;;;4.82;100.00
15487;BME280;7845;53.698;10.078;2023-01-29T01:24:30;102134.25;;;4.88;100.00
15487;BME280;7845;53.698;10.078;2023-01-29T01:26:56;102134.31;;;4.90;100.00
15487;BME280;7845;53.698;10.078;2023-01-29T01:29:21;102132.47;;;4.86;100.00
15487;BME280;7845;53.698;10.078;2023-01-29T01:31:47;102133.22;;;4.83;100.00
15487;BME280;7845;53.698;10.078;2023-01-29T01:34:12;102128.09;;;4.85;100.00
15487;BME280;7845;53.698;10.078;2023-01-29T01:36:37;102123.81;;;4.85;100.00
15487;BME280;7845;53.698;10.078;2023-01-29T01:39:03;102120.28;;;4.83;100.00
15487;BME280;7845;53.698;10.078;2023-01-29T01:41:29;102122.09;;;4.86;100.00
15487;BME280;7845;53.698;10.078;2023-01-29T01:43:57;102120.34;;;4.85;100.00
15487;BME280;7845;53.698;10.078;2023-01-29T01:46:23;102118.56;;;4.84;100.00
15487;BME280;7845;53.698;10.078;2023-01-29T01:48:57;102116.09;;;4.87;100.00
15487;BME280;7845;53.698;10.078;2023-01-29T01:51:25;102110.91;;;4.87;100.00
15487;BME280;7845;53.698;10.078;2023-01-29T01:54:01;102108.41;;;4.88;100.00
15487;BME280;7845;53.698;10.078;2023-01-29T01:56:32;102110.16;;;4.89;100.00
15487;BME280;7845;53.698;10.078;2023-01-29T01:59:04;102112.69;;;4.88;100.00
15487;BME280;7845;53.698;10.078;2023-01-29T02:01:31;102114.47;;;4.89;100.00
15487;BME280;7845;53.698;10.078;2023-01-29T02:04:09;102109.31;;;4.90;100.00
15487;BME280;7845;53.698;10.078;2023-01-29T02:06:54;102108.50;;;4.91;100.00
15487;BME280;7845;53.698;10.078;2023-01-29T02:09:47;102109.41;;;4.92;100.00
15487;BME280;7845;53.698;10.078;2023-01-29T02:12:15;102104.34;;;4.95;100.00
15487;BME280;7845;53.698;10.078;2023-01-29T02:14:42;102093.75;;;4.89;100.00
15487;BME280;7845;53.698;10.078;2023-01-29T02:17:13;102096.28;;;4.87;100.00
15487;BME280;7845;53.698;10.078;2023-01-29T02:25:19;102088.28;;;4.81;100.00
15487;BME280;7845;53.698;10.078;2023-01-29T02:30:30;102067.78;;;4.86;100.00
15487;BME280;7845;53.698;10.078;2023-01-29T02:35:45;102070.53;;;4.90;100.00
15487;BME280;7845;53.698;10.078;2023-01-29T02:38:22;102076.22;;;4.80;100.00
15487;BME280;7845;53.698;10.078;2023-01-29T02:41:04;102056.44;;;4.82;100.00
15487;BME280;7845;53.698;10.078;2023-01-29T02:43:44;102055.56;;;4.82;100.00
15487;BME280;7845;53.698;10.078;2023-01-29T02:46:22;102052.03;;;4.80;100.00
15487;BME280;7845;53.698;10.078;2023-01-29T02:51:47;102050.91;;;4.95;100.00
15487;BME280;7845;53.698;10.078;2023-01-29T02:56:58;102042.19;;;4.93;100.00
15487;BME280;7845;53.698;10.078;2023-01-29T02:59:30;102030.09;;;4.92;100.00
15487;BME280;7845;53.698;10.078;2023-01-29T03:02:09;102016.41;;;4.96;100.00
15487;BME280;7845;53.698;10.078;2023-01-29T03:04:40;102017.19;;;4.94;100.00
15487;BME280;7845;53.698;10.078;2023-01-29T03:07:27;102009.50;;;4.95;100.00
15487;BME280;7845;53.698;10.078;2023-01-29T03:10:20;102005.47;;;5.03;100.00
15487;BME280;7845;53.698;10.078;2023-01-29T03:12:53;102007.28;;;5.06;100.00
15487;BME280;7845;53.698;10.078;2023-01-29T03:15:27;101997.91;;;5.10;100.00
15487;BME280;7845;53.698;10.078;2023-01-29T03:18:01;102001.88;;;5.00;100.00
15487;BME280;7845;53.698;10.078;2023-01-29T03:20:33;102002.69;;;4.99;100.00
15487;BME280;7845;53.698;10.078;2023-01-29T03:23:06;101988.13;;;5.01;100.00
15487;BME280;7845;53.698;10.078;2023-01-29T03:25:34;101994.22;;;5.03;100.00
15487;BME280;7845;53.698;10.078;2023-01-29T03:28:20;101989.94;;;5.03;100.00
15487;BME280;7845;53.698;10.078;2023-01-29T03:31:07;101992.53;;;5.03;100.00
15487;BME280;7845;53.698;10.078;2023-01-29T03:34:20;101987.47;;;5.07;100.00
15487;BME280;7845;53.698;10.078;2023-01-29T03:37:01;101981.41;;;5.06;100.00
15487;BME280;7845;53.698;10.078;2023-01-29T03:39:32;101982.22;;;5.05;100.00
15487;BME280;7845;53.698;10.078;2023-01-29T03:42:23;101982.41;;;5.11;100.00
15487;BME280;7845;53.698;10.078;2023-01-29T03:45:18;101985.00;;;5.11;100.00
15487;BME280;7845;53.698;10.078;2023-01-29T03:53:24;101980.59;;;5.07;100.00
15487;BME280;7845;53.698;10.078;2023-01-29T03:56:03;101972.84;;;5.09;100.00
15487;BME280;7845;53.698;10.078;2023-01-29T03:58:39;101972.97;;;5.12;100.00
15487;BME280;7845;53.698;10.078;2023-01-29T04:01:13;101973.63;;;5.06;100.00
15487;BME280;7845;53.698;10.078;2023-01-29T04:04:02;101967.69;;;5.09;100.00
15487;BME280;7845;53.698;10.078;2023-01-29T04:06:33;101972.66;;;5.02;100.00
15487;BME280;7845;53.698;10.078;2023-01-29T04:09:02;101967.66;;;5.07;100.00
15487;BME280;7845;53.698;10.078;2023-01-29T04:11:28;101972.75;;;5.06;100.00
15487;BME280;7845;53.698;10.078;2023-01-29T04:13:56;101959.88;;;5.07;100.00
15487;BME280;7845;53.698;10.078;2023-01-29T04:16:34;101969.13;;;5.00;100.00
15487;BME280;7845;53.698;10.078;2023-01-29T04:19:01;101953.72;;;5.03;100.00
15487;BME280;7845;53.698;10.078;2023-01-29T04:21:27;101969.66;;;5.16;100.00
15487;BME280;7845;53.698;10.078;2023-01-29T04:23:54;101969.66;;;5.16;100.00
15487;BME280;7845;53.698;10.078;2023-01-29T04:29:45;101961.63;;;5.08;100.00
15487;BME280;7845;53.698;10.078;2023-01-29T04:32:20;101970.38;;;5.12;100.00
15487;BME280;7845;53.698;10.078;2023-01-29T04:37:48;101968.91;;;5.20;100.00
15487;BME280;7845;53.698;10.078;2023-01-29T04:40:38;101966.09;;;5.12;100.00
15487;BME280;7845;53.698;10.078;2023-01-29T04:46:17;101970.38;;;5.12;100.00
15487;BME280;7845;53.698;10.078;2023-01-29T04:51:59;101980.47;;;5.04;100.00
15487;BME280;7845;53.698;10.078;2023-01-29T04:57:35;101971.88;;;5.05;100.00
15487;BME280;7845;53.698;10.078;2023-01-29T05:00:12;101972.84;;;5.09;100.00
15487;BME280;7845;53.698;10.078;2023-01-29T05:02:40;101958.19;;;5.08;100.00
15487;BME280;7845;53.698;10.078;2023-01-29T05:05:07;101950.34;;;5.06;100.00
15487;BME280;7845;53.698;10.078;2023-01-29T05:07:35;101943.41;;;5.05;100.00
15487;BME280;7845;53.698;10.078;2023-01-29T05:10:04;101947.72;;;5.05;100.00
15487;BME280;7845;53.698;10.078;2023-01-29T05:12:30;101943.38;;;5.03;100.00
15487;BME280;7845;53.698;10.078;2023-01-29T05:15:00;101935.50;;;5.00;100.00
15487;BME280;7845;53.698;10.078;2023-01-29T05:17:26;101934.72;;;5.03;100.00
15487;BME280;7845;53.698;10.078;2023-01-29T05:19:54;101926.25;;;5.07;100.00
15487;BME280;7845;53.698;10.078;2023-01-29T05:22:20;101927.03;;;5.05;100.00
15487;BME280;7845;53.698;10.078;2023-01-29T05:24:47;101936.53;;;5.06;100.00
15487;BME280;7845;53.698;10.078;2023-01-29T05:27:22;101939.13;;;5.06;100.00
15487;BME280;7845;53.698;10.078;2023-01-29T05:30:10;101939.13;;;5.06;100.00
15487;BME280;7845;53.698;10.078;2023-01-29T05:32:46;101926.28;;;5.09;100.00
15487;BME280;7845;53.698;10.078;2023-01-29T05:35:12;101934.16;;;5.12;100.00
15487;BME280;7845;53.698;10.078;2023-01-29T05:37:38;101930.53;;;5.07;100.00
15487;BME280;7845;53.698;10.078;2023-01-29T05:40:04;101929.75;;;5.09;100.00
15487;BME280;7845;53.698;10.078;2023-01-29T05:42:32;101931.16;;;4.99;100.00
15487;BME280;7845;53.698;10.078;2023-01-29T05:44:58;101948.47;;;5.02;100.00
15487;BME280;7845;53.698;10.078;2023-01-29T05:47:23;101925.41;;;5.08;100.00
15487;BME280;7845;53.698;10.078;2023-01-29T05:49:48;101946.16;;;5.10;100.00
15487;BME280;7845;53.698;10.078;2023-01-29T05:52:14;101944.09;;;4.99;100.00
15487;BME280;7845;53.698;10.078;2023-01-29T05:54:39;101944.41;;;5.09;100.00
15487;BME280;7845;53.698;10.078;2023-01-29T05:57:06;101946.09;;;5.08;100.00
15487;BME280;7845;53.698;10.078;2023-01-29T05:59:31;101946.94;;;5.07;100.00
15487;BME280;7845;53.698;10.078;2023-01-29T06:01:56;101941.66;;;5.04;100.00
15487;BME280;7845;53.698;10.078;2023-01-29T06:04:22;101937.41;;;5.06;100.00
15487;BME280;7845;53.698;10.078;2023-01-29T06:06:47;101942.56;;;5.05;100.00
15487;BME280;7845;53.698;10.078;2023-01-29T06:09:13;101929.56;;;5.03;100.00
15487;BME280;7845;53.698;10.078;2023-01-29T06:11:38;101926.88;;;5.00;100.00
15487;BME280;7845;53.698;10.078;2023-01-29T06:14:04;101912.06;;;4.96;100.00
15487;BME280;7845;53.698;10.078;2023-01-29T06:16:29;101918.13;;;4.96;100.00
15487;BME280;7845;53.698;10.078;2023-01-29T06:18:54;101924.13;;;4.95;100.00
15487;BME280;7845;53.698;10.078;2023-01-29T06:21:19;101912.06;;;4.96;100.00
15487;BME280;7845;53.698;10.078;2023-01-29T06:23:45;101913.78;;;4.95;100.00
15487;BME280;7845;53.698;10.078;2023-01-29T06:26:12;101904.19;;;4.93;100.00
15487;BME280;7845;53.698;10.078;2023-01-29T06:28:38;101897.31;;;4.93;100.00
15487;BME280;7845;53.698;10.078;2023-01-29T06:31:04;101887.97;;;4.97;100.00
15487;BME280;7845;53.698;10.078;2023-01-29T06:33:30;101882.69;;;4.94;100.00
15487;BME280;7845;53.698;10.078;2023-01-29T06:36:00;101881.00;;;4.96;100.00
15487;BME280;7845;53.698;10.078;2023-01-29T06:38:25;101889.56;;;4.93;100.00
15487;BME280;7845;53.698;10.078;2023-01-29T06:40:54;101893.19;;;4.98;100.00
15487;BME280;7845;53.698;10.078;2023-01-29T06:43:21;101892.09;;;4.92;100.00
15487;BME280;7845;53.698;10.078;2023-01-29T06:45:55;101886.09;;;4.93;100.00
15487;BME280;7845;53.698;10.078;2023-01-29T06:48:23;101891.22;;;4.91;100.00
15487;BME280;7845;53.698;10.078;2023-01-29T06:50:49;101881.75;;;4.92;100.00
15487;BME280;7845;53.698;10.078;2023-01-29T06:53:15;101876.53;;;4.90;100.00
15487;BME280;7845;53.698;10.078;2023-01-29T06:55:41;101882.66;;;4.92;100.00
15487;BME280;7845;53.698;10.078;2023-01-29T06:58:08;101890.59;;;4.98;100.00
15487;BME280;7845;53.698;10.078;2023-01-29T07:00:34;101888.03;;;4.98;100.00
15487;BME280;7845;53.698;10.078;2023-01-29T07:03:00;101875.91;;;4.97;100.00
15487;BME280;7845;53.698;10.078;2023-01-29T07:05:25;101880.06;;;4.92;100.00
15487;BME280;7845;53.698;10.078;2023-01-29T07:07:50;101877.41;;;4.91;100.00
15487;BME280;7845;53.698;10.078;2023-01-29T07:10:16;101888.63;;;4.91;100.00
15487;BME280;7845;53.698;10.078;2023-01-29T07:12:41;101897.22;;;4.90;100.00
15487;BME280;7845;53.698;10.078;2023-01-29T07:15:07;101902.56;;;4.95;100.00
15487;BME280;7845;53.698;10.078;2023-01-29T07:17:32;101898.19;;;4.94;100.00
15487;BME280;7845;53.698;10.078;2023-01-29T07:19:57;101892.22;;;4.95;100.00
15487;BME280;7845;53.698;10.078;2023-01-29T07:22:23;101901.56;;;4.91;100.00
15487;BME280;7845;53.698;10.078;2023-01-29T07:24:49;101898.16;;;4.92;100.00
15487;BME280;7845;53.698;10.078;2023-01-29T07:27:15;101892.81;;;4.88;100.00
15487;BME280;7845;53.698;10.078;2023-01-29T07:29:40;101887.50;;;4.83;100.00
15487;BME280;7845;53.698;10.078;2023-01-29T07:32:05;101878.00;;;4.82;100.00
15487;BME280;7845;53.698;10.078;2023-01-29T07:34:33;101872.94;;;4.87;100.00
15487;BME280;7845;53.698;10.078;2023-01-29T07:36:58;101866.06;;;4.87;100.00
15487;BME280;7845;53.698;10.078;2023-01-29T07:39:24;101872.81;;;4.82;100.00
15487;BME280;7845;53.698;10.078;2023-01-29T07:41:49;101862.47;;;4.82;100.00
15487;BME280;7845;53.698;10.078;2023-01-29T07:44:15;101871.25;;;4.87;100.00
15487;BME280;7845;53.698;10.078;2023-01-29T07:46:40;101872.03;;;4.85;100.00
15487;BME280;7845;53.698;10.078;2023-01-29T07:49:05;101871.03;;;4.81;100.00
15487;BME280;7845;53.698;10.078;2023-01-29T07:51:32;101867.78;;;4.87;100.00
15487;BME280;7845;53.698;10.078;2023-01-29T07:53:57;101873.13;;;4.91;100.00
15487;BME280;7845;53.698;10.078;2023-01-29T07:56:23;101873.31;;;4.97;100.00
15487;BME280;7845;53.698;10.078;2023-01-29T07:58:48;101868.19;;;4.99;100.00
15487;BME280;7845;53.698;10.078;2023-01-29T08:01:13;101869.03;;;4.98;100.00
15487;BME280;7845;53.698;10.078;2023-01-29T08:03:39;101876.91;;;5.02;100.00
15487;BME280;7845;53.698;10.078;2023-01-29T08:06:04;101866.75;;;5.07;100.00
15487;BME280;7845;53.698;10.078;2023-01-29T08:08:30;101871.22;;;5.13;100.00
15487;BME280;7845;53.698;10.078;2023-01-29T08:10:55;101866.19;;;5.17;100.00
15487;BME280;7845;53.698;10.078;2023-01-29T08:13:21;101864.19;;;5.09;100.00
15487;BME280;7845;53.698;10.078;2023-01-29T08:15:46;101863.31;;;5.08;100.00
15487;BME280;7845;53.698;10.078;2023-01-29T08:18:13;101866.94;;;5.13;100.00
15487;BME280;7845;53.698;10.078;2023-01-29T08:20:38;101863.56;;;5.16;100.00
15487;BME280;7845;53.698;10.078;2023-01-29T08:23:06;101869.66;;;5.18;100.00
15487;BME280;7845;53.698;10.078;2023-01-29T08:25:34;101879.22;;;5.20;100.00
15487;BME280;7845;53.698;10.078;2023-01-29T08:28:00;101872.31;;;5.19;100.00
15487;BME280;7845;53.698;10.078;2023-01-29T08:30:29;101873.09;;;5.17;100.00
15487;BME280;7845;53.698;10.078;2023-01-29T08:32:55;101878.28;;;5.18;100.00
15487;BME280;7845;53.698;10.078;2023-01-29T08:35:20;101878.19;;;5.15;100.00
15487;BME280;7845;53.698;10.078;2023-01-29T08:37:57;101870.41;;;5.14;100.00
15487;BME280;7845;53.698;10.078;2023-01-29T08:40:26;101871.25;;;5.14;100.00
15487;BME280;7845;53.698;10.078;2023-01-29T08:42:57;101871.16;;;5.11;100.00
15487;BME280;7845;53.698;10.078;2023-01-29T08:45:23;101876.41;;;5.13;100.00
15487;BME280;7845;53.698;10.078;2023-01-29T08:47:49;101875.50;;;5.12;100.00
15487;BME280;7845;53.698;10.078;2023-01-29T08:50:15;101867.84;;;5.15;100.00
15487;BME280;7845;53.698;10.078;2023-01-29T08:52:42;101872.09;;;5.13;100.00
15487;BME280;7845;53.698;10.078;2023-01-29T08:55:07;101881.69;;;5.17;100.00
15487;BME280;7845;53.698;10.078;2023-01-29T08:57:34;101873.09;;;5.17;100.00
15487;BME280;7845;53.698;10.078;2023-01-29T09:00:01;101877.47;;;5.19;100.00
15487;BME280;7845;53.698;10.078;2023-01-29T09:02:27;101879.22;;;5.20;100.00
15487;BME280;7845;53.698;10.078;2023-01-29T09:04:53;101883.50;;;5.20;100.00
15487;BME280;7845;53.698;10.078;2023-01-29T09:07:19;101880.09;;;5.21;100.00
15487;BME280;7845;53.698;10.078;2023-01-29T09:09:45;101884.59;;;5.26;100.00
15487;BME280;7845;53.698;10.078;2023-01-29T09:12:12;101883.59;;;5.23;100.00
15487;BME280;7845;53.698;10.078;2023-01-29T09:14:37;101871.41;;;5.19;100.00
15487;BME280;7845;53.698;10.078;2023-01-29T09:17:03;101877.56;;;5.22;100.00
15487;BME280;7845;53.698;10.078;2023-01-29T09:19:28;101877.66;;;5.25;100.00
15487;BME280;7845;53.698;10.078;2023-01-29T09:21:54;101876.09;;;5.30;100.00
15487;BME280;7845;53.698;10.078;2023-01-29T09:24:20;101873.50;;;5.30;100.00
15487;BME280;7845;53.698;10.078;2023-01-29T09:26:45;101860.66;;;5.33;100.00
15487;BME280;7845;53.698;10.078;2023-01-29T09:29:11;101864.16;;;5.35;100.00
15487;BME280;7845;53.698;10.078;2023-01-29T09:31:37;101864.31;;;5.40;100.00
15487;BME280;7845;53.698;10.078;2023-01-29T09:34:02;101857.47;;;5.42;100.00
15487;BME280;7845;53.698;10.078;2023-01-29T09:36:27;101859.19;;;5.41;100.00
15487;BME280;7845;53.698;10.078;2023-01-29T09:38:53;101857.34;;;5.37;100.00
15487;BME280;7845;53.698;10.078;2023-01-29T09:44:04;101855.69;;;5.39;100.00
15487;BME280;7845;53.698;10.078;2023-01-29T09:46:39;101847.84;;;5.38;100.00
15487;BME280;7845;53.698;10.078;2023-01-29T09:49:11;101838.53;;;5.43;100.00
15487;BME280;7845;53.698;10.078;2023-01-29T09:51:40;101827.31;;;5.44;100.00
15487;BME280;7845;53.698;10.078;2023-01-29T09:54:24;101823.03;;;5.44;100.00
15487;BME280;7845;53.698;10.078;2023-01-29T09:56:54;101815.22;;;5.43;100.00
15487;BME280;7845;53.698;10.078;2023-01-29T09:59:22;101803.25;;;5.46;100.00
15487;BME280;7845;53.698;10.078;2023-01-29T10:01:58;101804.25;;;5.51;100.00
15487;BME280;7845;53.698;10.078;2023-01-29T10:04:47;101806.09;;;5.55;100.00
15487;BME280;7845;53.698;10.078;2023-01-29T10:10:44;101803.69;;;5.62;100.00
15487;BME280;7845;53.698;10.078;2023-01-29T10:13:32;101795.16;;;5.66;100.00
15487;BME280;7845;53.698;10.078;2023-01-29T10:21:38;101778.09;;;5.72;100.00
15487;BME280;7845;53.698;10.078;2023-01-29T10:24:21;101764.25;;;5.70;100.00
15487;BME280;7845;53.698;10.078;2023-01-29T10:26:49;101760.84;;;5.73;100.00
15487;BME280;7845;53.698;10.078;2023-01-29T10:29:18;101764.16;;;5.67;100.00
15487;BME280;7845;53.698;10.078;2023-01-29T10:31:45;101758.47;;;5.80;100.00
15487;BME280;7845;53.698;10.078;2023-01-29T10:34:29;101760.31;;;5.84;100.00
15487;BME280;7845;53.698;10.078;2023-01-29T10:36:58;101758.66;;;5.86;100.00
15487;BME280;7845;53.698;10.078;2023-01-29T10:39:25;101749.25;;;5.88;100.00
15487;BME280;7845;53.698;10.078;2023-01-29T10:42:03;101744.88;;;5.87;100.00
15487;BME280;7845;53.698;10.078;2023-01-29T10:47:30;101743.72;;;5.78;100.00
15487;BME280;7845;53.698;10.078;2023-01-29T10:50:16;101740.47;;;5.85;100.00
15487;BME280;7845;53.698;10.078;2023-01-29T10:53:16;101739.50;;;5.81;100.00
15487;BME280;7845;53.698;10.078;2023-01-29T11:01:05;101724.69;;;5.76;100.00
15487;BME280;7845;53.698;10.078;2023-01-29T11:03:32;101728.97;;;5.75;100.00
15487;BME280;7845;53.698;10.078;2023-01-29T11:06:01;101716.03;;;5.75;100.00
15487;BME280;7845;53.698;10.078;2023-01-29T11:08:33;101721.22;;;5.77;100.00
15487;BME280;7845;53.698;10.078;2023-01-29T11:11:16;101715.28;;;5.79;100.00
15487;BME280;7845;53.698;10.078;2023-01-29T11:13:56;101713.47;;;5.77;100.00
15487;BME280;7845;53.698;10.078;2023-01-29T11:16:25;101711.81;;;5.79;100.00
15487;BME280;7845;53.698;10.078;2023-01-29T11:18:56;101710.00;;;5.76;100.00
15487;BME280;7845;53.698;10.078;2023-01-29T11:21:24;101708.16;;;5.72;100.00
15487;BME280;7845;53.698;10.078;2023-01-29T11:24:04;101700.34;;;5.71;100.00
15487;BME280;7845;53.698;10.078;2023-01-29T11:26:34;101692.66;;;5.74;100.00
15487;BME280;7845;53.698;10.078;2023-01-29T11:29:01;101691.63;;;5.67;100.00
15487;BME280;7845;53.698;10.078;2023-01-29T11:31:37;101689.16;;;5.72;100.00
15487;BME280;7845;53.698;10.078;2023-01-29T11:34:19;101680.56;;;5.73;100.00
15487;BME280;7845;53.698;10.078;2023-01-29T11:36:45;101678.84;;;5.73;100.00
15487;BME280;7845;53.698;10.078;2023-01-29T11:39:21;101681.53;;;5.76;100.00
15487;BME280;7845;53.698;10.078;2023-01-29T11:42:03;101669.41;;;5.75;100.00
15487;BME280;7845;53.698;10.078;2023-01-29T11:47:17;101661.41;;;5.68;100.00
15487;BME280;7845;53.698;10.078;2023-01-29T11:49:54;101650.19;;;5.67;100.00
15487;BME280;7845;53.698;10.078;2023-01-29T11:52:26;101651.03;;;5.66;100.00
15487;BME280;7845;53.698;10.078;2023-01-29T11:55:06;101644.25;;;5.71;100.00
15487;BME280;7845;53.698;10.078;2023-01-29T11:57:41;101636.47;;;5.71;100.00
15487;BME280;7845;53.698;10.078;2023-01-29T12:02:53;101633.78;;;5.67;100.00
15487;BME280;7845;53.698;10.078;2023-01-29T12:05:25;101628.88;;;5.77;100.00
15487;BME280;7845;53.698;10.078;2023-01-29T12:07:55;101624.63;;;5.79;100.00
15487;BME280;7845;53.698;10.078;2023-01-29T12:10:36;101623.94;;;5.86;100.00
15487;BME280;7845;53.698;10.078;2023-01-29T12:13:25;101615.34;;;5.87;100.00
15487;BME280;7845;53.698;10.078;2023-01-29T12:16:20;101599.03;;;5.91;100.00
15487;BME280;7845;53.698;10.078;2023-01-29T12:19:04;101599.97;;;5.93;100.00
15487;BME280;7845;53.698;10.078;2023-01-29T12:21:37;101602.53;;;5.93;100.00
15487;BME280;7845;53.698;10.078;2023-01-29T12:27:20;101591.41;;;5.97;100.00
15487;BME280;7845;53.698;10.078;2023-01-29T12:29:59;101592.19;;;5.95;100.00
15487;BME280;7845;53.698;10.078;2023-01-29T12:35:13;101583.53;;;5.93;100.00
15487;BME280;7845;53.698;10.078;2023-01-29T12:38:07;101575.78;;;5.94;100.00
15487;BME280;7845;53.698;10.078;2023-01-29T12:41:23;101572.25;;;5.91;100.00
15487;BME280;7845;53.698;10.078;2023-01-29T12:43:41;101569.81;;;5.97;100.00
15487;BME280;7845;53.698;10.078;2023-01-29T12:46:23;101565.59;;;6.02;100.00
15487;BME280;7845;53.698;10.078;2023-01-29T12:48:51;101562.06;;;5.98;100.00
15487;BME280;7845;53.698;10.078;2023-01-29T12:51:22;101557.56;;;5.91;100.00
15487;BME280;7845;53.698;10.078;2023-01-29T12:54:06;101546.34;;;5.91;100.00
15487;BME280;7845;53.698;10.078;2023-01-29T12:56:37;101547.84;;;5.83;100.00
15487;BME280;7845;53.698;10.078;2023-01-29T12:59:19;101540.94;;;5.83;100.00
15487;BME280;7845;53.698;10.078;2023-01-29T13:01:55;101545.25;;;5.83;100.00
15487;BME280;7845;53.698;10.078;2023-01-29T13:04:41;101541.91;;;5.85;100.00
15487;BME280;7845;53.698;10.078;2023-01-29T13:07:12;101533.97;;;5.81;100.00
15487;BME280;7845;53.698;10.078;2023-01-29T13:09:42;101526.28;;;5.84;100.00
15487;BME280;7845;53.698;10.078;2023-01-29T13:12:13;101522.81;;;5.83;100.00
15487;BME280;7845;53.698;10.078;2023-01-29T13:14:46;101527.13;;;5.83;100.00
15487;BME280;7845;53.698;10.078;2023-01-29T13:17:27;101518.59;;;5.85;100.00
15487;BME280;7845;53.698;10.078;2023-01-29T13:20:00;101518.44;;;5.81;100.00
15487;BME280;7845;53.698;10.078;2023-01-29T13:22:32;101509.88;;;5.83;100.00
15487;BME280;7845;53.698;10.078;2023-01-29T13:24:59;101511.56;;;5.81;100.00
15487;BME280;7845;53.698;10.078;2023-01-29T13:27:31;101512.50;;;5.85;100.00
15487;BME280;7845;53.698;10.078;2023-01-29T13:29:58;101507.31;;;5.85;100.00
15487;BME280;7845;53.698;10.078;2023-01-29T13:32:27;101517.78;;;5.88;100.00
15487;BME280;7845;53.698;10.078;2023-01-29T13:34:58;101513.44;;;5.87;100.00
15487;BME280;7845;53.698;10.078;2023-01-29T13:37:32;101503.97;;;5.87;100.00
15487;BME280;7845;53.698;10.078;2023-01-29T13:39:59;101503.13;;;5.88;100.00
15487;BME280;7845;53.698;10.078;2023-01-29T13:42:43;101497.97;;;5.90;100.00
15487;BME280;7845;53.698;10.078;2023-01-29T13:45:20;101498.72;;;5.86;100.00
15487;BME280;7845;53.698;10.078;2023-01-29T13:47:46;101489.94;;;5.81;100.00
15487;BME280;7845;53.698;10.078;2023-01-29T13:52:45;101486.38;;;5.76;100.00
15487;BME280;7845;53.698;10.078;2023-01-29T14:02:41;101475.28;;;5.81;100.00
15487;BME280;7845;53.698;10.078;2023-01-29T14:07:59;101463.22;;;5.83;100.00
15487;BME280;7845;53.698;10.078;2023-01-29T14:10:28;101453.59;;;5.76;100.00
15487;BME280;7845;53.698;10.078;2023-01-29T14:15:34;101441.56;;;5.80;100.00
15487;BME280;7845;53.698;10.078;2023-01-29T14:23:07;101418.25;;;5.80;100.00
15487;BME280;7845;53.698;10.078;2023-01-29T14:25:41;101418.25;;;5.78;100.00
15487;BME280;7845;53.698;10.078;2023-01-29T14:28:15;101420.00;;;5.79;100.00
15487;BME280;7845;53.698;10.078;2023-01-29T14:30:48;101420.00;;;5.79;100.00
15487;BME280;7845;53.698;10.078;2023-01-29T14:33:31;101414.88;;;5.82;100.00
15487;BME280;7845;53.698;10.078;2023-01-29T14:35:58;101409.81;;;5.85;100.00
15487;BME280;7845;53.698;10.078;2023-01-29T14:38:30;101407.81;;;5.77;100.00